createdAt,value
2022-12-03T00:00:26.674Z,90.17
2022-12-03T00:03:52.152Z,90.25
2022-12-03T00:06:57.681Z,90.43
2022-12-03T00:10:03.258Z,90.43
2022-12-03T00:13:08.657Z,90.66
2022-12-03T00:16:14.084Z,90.63
2022-12-03T00:19:19.433Z,90.81
2022-12-03T00:22:24.682Z,90.84
2022-12-03T00:25:30.016Z,90.97
2022-12-03T00:28:35.311Z,90.92
2022-12-03T00:31:42.115Z,91.24
2022-12-03T00:34:47.617Z,91.30
2022-12-03T00:37:52.846Z,91.35
2022-12-03T00:40:58.137Z,91.73
2022-12-03T00:44:04.050Z,91.90
2022-12-03T00:47:09.890Z,91.99
2022-12-03T00:50:15.303Z,92.30
2022-12-03T00:53:20.583Z,92.52
2022-12-03T00:56:26.046Z,92.61
2022-12-03T00:59:31.568Z,93.19
2022-12-03T01:02:36.817Z,93.16
2022-12-03T01:05:42.523Z,93.15
2022-12-03T01:08:47.898Z,93.44
2022-12-03T01:11:53.312Z,93.57
2022-12-03T01:14:58.591Z,93.57
2022-12-03T01:18:03.979Z,93.73
2022-12-03T01:21:09.159Z,93.78
2022-12-03T01:24:14.810Z,93.88
2022-12-03T01:27:20.117Z,93.98
2022-12-03T01:30:25.472Z,94.09
2022-12-03T01:33:30.919Z,94.11
2022-12-03T01:36:36.206Z,94.01
2022-12-03T01:39:41.561Z,94.07
2022-12-03T01:42:46.874Z,93.97
2022-12-03T01:45:52.557Z,94.14
2022-12-03T01:48:57.999Z,93.94
2022-12-03T01:52:03.316Z,94.05
2022-12-03T01:55:13.982Z,93.98
2022-12-03T01:58:21.139Z,94.09
2022-12-03T02:01:26.570Z,94.01
2022-12-03T02:04:31.900Z,94.02
2022-12-03T02:07:37.362Z,94.10
2022-12-03T02:10:42.706Z,94.08
2022-12-03T02:13:48.741Z,94.04
2022-12-03T02:16:54.108Z,94.12
2022-12-03T02:19:59.865Z,94.19
2022-12-03T02:23:11.440Z,94.26
2022-12-03T02:26:16.745Z,94.18
2022-12-03T02:29:22.174Z,94.42
2022-12-03T02:32:27.530Z,94.41
2022-12-03T02:35:34.073Z,94.49
2022-12-03T02:38:39.649Z,94.43
2022-12-03T02:42:02.547Z,94.56
2022-12-03T02:45:10.288Z,94.62
2022-12-03T02:48:17.722Z,94.64
2022-12-03T02:51:23.490Z,94.70
2022-12-03T02:54:28.820Z,94.94
2022-12-03T02:57:34.763Z,95.04
2022-12-03T03:00:40.710Z,95.35
2022-12-03T03:03:47.055Z,95.65
2022-12-03T03:06:53.023Z,95.85
2022-12-03T03:09:59.081Z,96.05
2022-12-03T03:13:07.675Z,96.13
2022-12-03T03:16:13.109Z,96.33
2022-12-03T03:19:18.529Z,96.52
2022-12-03T03:22:32.799Z,96.77
2022-12-03T03:25:38.691Z,96.97
2022-12-03T03:28:45.959Z,96.94
2022-12-03T03:31:51.521Z,97.24
2022-12-03T03:34:57.157Z,97.52
2022-12-03T03:38:02.551Z,97.91
2022-12-03T03:41:09.255Z,98.06
2022-12-03T03:44:15.051Z,98.15
2022-12-03T03:47:20.706Z,98.25
2022-12-03T03:50:26.841Z,98.25
2022-12-03T03:53:32.583Z,98.34
2022-12-03T03:56:38.236Z,99.02
2022-12-03T03:59:44.073Z,99.34
2022-12-03T04:02:49.419Z,99.38
2022-12-03T04:05:54.760Z,99.88
2022-12-03T04:09:00.119Z,99.87
2022-12-03T04:12:23.416Z,99.98
2022-12-03T04:15:29.070Z,100.00
2022-12-03T04:18:43.713Z,100.00
2022-12-03T04:22:11.716Z,100.00
2022-12-03T04:25:34.453Z,100.00
2022-12-03T04:28:51.715Z,100.00
2022-12-03T04:32:14.876Z,100.00
2022-12-03T04:35:38.131Z,100.00
2022-12-03T04:38:43.391Z,100.00
2022-12-03T04:41:48.701Z,100.00
2022-12-03T04:44:54.308Z,100.00
2022-12-03T04:47:59.775Z,100.00
2022-12-03T04:51:05.029Z,100.00
2022-12-03T04:54:10.442Z,100.00
2022-12-03T04:57:15.898Z,100.00
2022-12-03T05:00:21.464Z,100.00
2022-12-03T05:03:26.842Z,100.00
2022-12-03T05:06:32.317Z,100.00
2022-12-03T05:09:37.652Z,100.00
2022-12-03T05:12:43.284Z,100.00
2022-12-03T05:15:48.662Z,100.00
2022-12-03T05:18:54.050Z,100.00
2022-12-03T05:21:59.419Z,100.00
2022-12-03T05:25:05.002Z,100.00
2022-12-03T05:28:10.536Z,100.00
2022-12-03T05:31:16.160Z,100.00
2022-12-03T05:34:21.728Z,100.00
2022-12-03T05:37:26.867Z,100.00
2022-12-03T05:40:32.120Z,100.00
2022-12-03T05:43:37.474Z,100.00
2022-12-03T05:46:42.889Z,100.00
2022-12-03T05:49:48.224Z,100.00
2022-12-03T05:52:53.827Z,100.00
2022-12-03T05:55:59.255Z,100.00
2022-12-03T05:59:04.901Z,100.00
2022-12-03T06:02:10.199Z,100.00
2022-12-03T06:05:17.094Z,100.00
2022-12-03T06:08:22.501Z,100.00
2022-12-03T06:11:29.841Z,100.00
2022-12-03T06:14:35.837Z,100.00
2022-12-03T06:17:41.406Z,100.00
2022-12-03T06:20:46.682Z,100.00
2022-12-03T06:23:52.085Z,100.00
2022-12-03T06:26:57.348Z,100.00
2022-12-03T06:30:02.912Z,100.00
2022-12-03T06:33:08.451Z,100.00
2022-12-03T06:36:15.109Z,100.00
2022-12-03T06:39:24.637Z,100.00
2022-12-03T06:42:30.137Z,100.00
2022-12-03T06:45:35.548Z,100.00
2022-12-03T06:48:40.906Z,100.00
2022-12-03T06:51:46.027Z,100.00
2022-12-03T06:54:51.570Z,100.00
2022-12-03T06:57:57.162Z,100.00
2022-12-03T07:01:02.674Z,100.00
2022-12-03T07:04:08.255Z,100.00
2022-12-03T07:07:13.552Z,100.00
2022-12-03T07:10:19.026Z,100.00
2022-12-03T07:13:24.402Z,100.00
2022-12-03T07:16:30.692Z,100.00
2022-12-03T07:19:36.021Z,100.00
2022-12-03T07:22:41.381Z,100.00
2022-12-03T07:25:46.679Z,99.86
2022-12-03T07:28:52.142Z,99.72
2022-12-03T07:31:57.539Z,99.60
2022-12-03T07:35:02.970Z,99.32
2022-12-03T07:38:08.284Z,99.10
2022-12-03T07:41:13.741Z,99.00
2022-12-03T07:44:19.030Z,98.70
2022-12-03T07:47:24.546Z,98.44
2022-12-03T07:50:32.442Z,98.26
2022-12-03T07:53:37.987Z,97.95
2022-12-03T07:56:43.260Z,97.37
2022-12-03T07:59:48.480Z,97.13
2022-12-03T08:02:53.746Z,96.71
2022-12-03T08:05:59.392Z,96.42
2022-12-03T08:09:04.768Z,96.26
2022-12-03T08:12:16.343Z,96.45
2022-12-03T08:15:24.116Z,96.54
2022-12-03T08:18:29.627Z,96.16
2022-12-03T08:21:36.485Z,95.70
2022-12-03T08:24:42.323Z,95.21
2022-12-03T08:27:47.693Z,95.13
2022-12-03T08:31:00.148Z,94.79
2022-12-03T08:34:16.592Z,94.15
2022-12-03T08:37:21.920Z,93.93
2022-12-03T08:40:29.422Z,92.96
2022-12-03T08:43:35.730Z,92.93
2022-12-03T08:46:41.231Z,92.55
2022-12-03T08:49:48.788Z,91.44
2022-12-03T08:52:54.889Z,91.26
2022-12-03T08:56:01.163Z,90.92
2022-12-03T08:59:19.139Z,90.62
2022-12-03T09:02:27.840Z,90.63
2022-12-03T09:05:33.660Z,91.02
2022-12-03T09:08:38.971Z,90.67
2022-12-03T09:11:44.388Z,90.15
2022-12-03T09:14:49.673Z,90.11
2022-12-03T09:17:55.033Z,89.96
2022-12-03T09:21:00.410Z,89.56
2022-12-03T09:24:05.953Z,89.01
2022-12-03T09:27:11.294Z,88.54
2022-12-03T09:30:17.312Z,88.95
2022-12-03T09:33:22.704Z,89.29
2022-12-03T09:36:28.074Z,89.33
2022-12-03T09:39:33.520Z,89.60
2022-12-03T09:42:39.219Z,89.64
2022-12-03T09:45:46.221Z,90.02
2022-12-03T09:48:51.681Z,90.05
2022-12-03T09:51:58.532Z,89.69
2022-12-03T09:55:06.682Z,89.86
2022-12-03T09:58:13.049Z,89.92
2022-12-03T10:01:18.861Z,90.28
2022-12-03T10:04:25.080Z,90.54
2022-12-03T10:07:30.663Z,90.09
2022-12-03T10:10:36.645Z,90.39
2022-12-03T10:13:42.360Z,90.50
2022-12-03T10:16:47.888Z,90.32
2022-12-03T10:19:53.512Z,90.81
2022-12-03T10:22:59.011Z,90.80
2022-12-03T10:26:04.729Z,90.62
2022-12-03T10:29:14.541Z,90.88
2022-12-03T10:32:19.884Z,90.33
2022-12-03T10:35:26.740Z,90.21
2022-12-03T10:38:32.424Z,90.24
2022-12-03T10:41:38.809Z,90.07
2022-12-03T10:44:44.183Z,90.26
2022-12-03T10:48:05.931Z,90.51
2022-12-03T10:51:15.534Z,90.41
2022-12-03T10:54:22.675Z,89.99
2022-12-03T10:57:28.168Z,89.99
2022-12-03T11:00:33.639Z,89.73
2022-12-03T11:03:39.089Z,89.68
2022-12-03T11:06:44.482Z,90.18
2022-12-03T11:09:52.014Z,90.32
2022-12-03T11:13:14.776Z,90.34
2022-12-03T11:16:37.742Z,90.45
2022-12-03T11:19:52.736Z,90.63
2022-12-03T11:22:58.563Z,90.94
2022-12-03T11:26:03.943Z,91.32
2022-12-03T11:29:14.431Z,91.57
2022-12-03T11:32:37.046Z,91.61
2022-12-03T11:36:08.623Z,91.82
2022-12-03T11:39:14.207Z,92.18
2022-12-03T11:42:33.201Z,92.13
2022-12-03T11:45:39.660Z,92.03
2022-12-03T11:48:46.382Z,92.24
2022-12-03T11:51:51.949Z,92.21
2022-12-03T11:54:59.380Z,92.08
2022-12-03T11:58:16.168Z,92.01
2022-12-03T12:01:36.937Z,92.08
2022-12-03T12:04:47.631Z,92.23
2022-12-03T12:07:53.669Z,92.33
2022-12-03T12:10:59.827Z,92.64
2022-12-03T12:14:05.884Z,92.80
2022-12-03T12:17:24.793Z,92.74
2022-12-03T12:20:30.209Z,92.98
2022-12-03T12:23:35.510Z,92.95
2022-12-03T12:26:50.891Z,92.99
2022-12-03T12:29:57.802Z,92.89
2022-12-03T12:33:14.125Z,93.10
2022-12-03T12:36:19.481Z,93.47
2022-12-03T12:39:24.804Z,93.66
2022-12-03T12:42:31.679Z,94.01
2022-12-03T12:45:38.256Z,94.28
2022-12-03T12:48:43.727Z,94.37
2022-12-03T12:51:49.772Z,94.69
2022-12-03T12:54:56.146Z,94.75
2022-12-03T12:58:07.223Z,94.45
2022-12-03T13:01:21.219Z,94.53
2022-12-03T13:04:29.210Z,94.54
2022-12-03T13:07:34.886Z,94.88
2022-12-03T13:10:43.470Z,95.15
2022-12-03T13:13:49.090Z,95.47
2022-12-03T13:16:56.250Z,95.78
2022-12-03T13:20:07.552Z,95.75
2022-12-03T13:23:23.266Z,95.81
2022-12-03T13:26:38.577Z,96.08
2022-12-03T13:29:45.717Z,96.18
2022-12-03T13:32:51.057Z,96.08
2022-12-03T13:35:57.089Z,95.82
2022-12-03T13:39:03.263Z,95.74
2022-12-03T13:42:34.392Z,95.39
2022-12-03T13:45:41.624Z,95.61
2022-12-03T13:48:47.613Z,95.53
2022-12-03T13:51:53.023Z,95.64
2022-12-03T13:54:58.473Z,95.84
2022-12-03T13:58:03.698Z,95.92
2022-12-03T14:01:09.254Z,95.87
2022-12-03T14:04:14.766Z,96.08
2022-12-03T14:07:20.166Z,96.21
2022-12-03T14:10:25.604Z,96.20
2022-12-03T14:13:30.940Z,96.45
2022-12-03T14:16:36.336Z,96.63
2022-12-03T14:19:41.592Z,96.80
2022-12-03T14:22:47.159Z,97.16
2022-12-03T14:25:53.691Z,97.21
2022-12-03T14:28:59.122Z,97.31
2022-12-03T14:32:04.768Z,97.41
2022-12-03T14:35:10.821Z,97.74
2022-12-03T14:38:16.186Z,97.85
2022-12-03T14:41:39.425Z,98.00
2022-12-03T14:44:45.682Z,98.05
2022-12-03T14:47:51.055Z,98.13
2022-12-03T14:50:56.411Z,98.35
2022-12-03T14:54:01.796Z,98.35
2022-12-03T14:57:07.133Z,98.39
2022-12-03T15:00:13.580Z,98.57
2022-12-03T15:03:18.964Z,98.69
2022-12-03T15:06:24.324Z,98.71
2022-12-03T15:09:29.769Z,98.83
2022-12-03T15:12:35.097Z,99.11
2022-12-03T15:15:40.479Z,99.04
2022-12-03T15:18:45.772Z,99.34
2022-12-03T15:21:51.259Z,99.48
2022-12-03T15:24:57.052Z,99.63
2022-12-03T15:28:05.298Z,99.65
2022-12-03T15:31:10.874Z,99.75
2022-12-03T15:34:22.061Z,99.76
2022-12-03T15:37:28.073Z,99.92
2022-12-03T15:40:33.459Z,99.99
2022-12-03T15:43:38.739Z,100.00
2022-12-03T15:46:44.412Z,100.00
2022-12-03T15:49:49.745Z,100.00
2022-12-03T15:52:55.262Z,100.00
2022-12-03T15:56:00.728Z,100.00
2022-12-03T15:59:06.056Z,100.00
2022-12-03T16:02:11.725Z,100.00
2022-12-03T16:05:17.471Z,100.00
2022-12-03T16:08:22.957Z,100.00
2022-12-03T16:11:28.398Z,100.00
2022-12-03T16:14:33.798Z,100.00
2022-12-03T16:17:39.109Z,100.00
2022-12-03T16:20:44.429Z,100.00
2022-12-03T16:23:49.761Z,100.00
2022-12-03T16:26:54.965Z,100.00
2022-12-03T16:30:00.322Z,100.00
2022-12-03T16:33:05.829Z,100.00
2022-12-03T16:36:11.710Z,100.00
2022-12-03T16:39:17.591Z,100.00
2022-12-03T16:42:24.033Z,100.00
2022-12-03T16:46:01.518Z,100.00
2022-12-03T16:49:08.209Z,100.00
2022-12-03T16:52:13.443Z,100.00
2022-12-03T16:55:18.875Z,100.00
2022-12-03T16:58:24.268Z,100.00
2022-12-03T17:01:29.706Z,100.00
2022-12-03T17:04:35.471Z,100.00
2022-12-03T17:07:40.784Z,100.00
2022-12-03T17:10:46.251Z,100.00
2022-12-03T17:13:51.731Z,100.00
2022-12-03T17:16:57.187Z,100.00
2022-12-03T17:20:02.652Z,100.00
2022-12-03T17:23:08.410Z,100.00
2022-12-03T17:26:13.788Z,100.00
2022-12-03T17:29:19.130Z,100.00
2022-12-03T17:32:24.386Z,100.00
2022-12-03T17:35:29.971Z,100.00
2022-12-03T17:38:39.000Z,100.00
2022-12-03T17:41:44.742Z,100.00
2022-12-03T17:44:50.215Z,100.00
2022-12-03T17:47:55.512Z,100.00
2022-12-03T17:51:01.742Z,100.00
2022-12-03T17:54:07.313Z,100.00
2022-12-03T17:57:12.729Z,100.00
2022-12-03T18:00:18.592Z,100.00
2022-12-03T18:03:23.893Z,100.00
2022-12-03T18:06:29.262Z,100.00
2022-12-03T18:09:34.637Z,100.00
2022-12-03T18:12:39.796Z,100.00
2022-12-03T18:15:45.297Z,100.00
2022-12-03T18:18:55.134Z,100.00
2022-12-03T18:22:02.500Z,100.00
2022-12-03T18:25:08.613Z,100.00
2022-12-03T18:28:13.878Z,100.00
2022-12-03T18:31:20.923Z,100.00
2022-12-03T18:34:26.227Z,100.00
2022-12-03T18:37:32.693Z,100.00
2022-12-03T18:40:38.487Z,100.00
2022-12-03T18:43:43.860Z,100.00
2022-12-03T18:46:54.216Z,100.00
2022-12-03T18:50:00.079Z,100.00
2022-12-03T18:53:05.737Z,100.00
2022-12-03T18:56:11.481Z,100.00
2022-12-03T18:59:16.960Z,100.00
2022-12-03T19:05:48.529Z,100.00
2022-12-03T19:08:54.808Z,100.00
2022-12-03T19:12:00.237Z,100.00
2022-12-03T19:15:06.517Z,100.00
2022-12-03T19:18:11.817Z,100.00
2022-12-03T19:21:17.746Z,100.00
2022-12-03T19:24:24.804Z,100.00
2022-12-03T19:27:31.010Z,100.00
2022-12-03T19:30:36.310Z,100.00
2022-12-03T19:33:42.629Z,100.00
2022-12-03T19:36:48.316Z,100.00
2022-12-03T19:39:55.029Z,100.00
2022-12-03T19:43:00.730Z,100.00
2022-12-03T19:46:07.698Z,100.00
2022-12-03T19:49:13.591Z,100.00
2022-12-03T19:52:18.894Z,100.00
2022-12-03T19:55:24.260Z,100.00
2022-12-03T19:58:29.985Z,100.00
2022-12-03T20:01:36.131Z,100.00
2022-12-03T20:04:41.487Z,100.00
2022-12-03T20:07:46.906Z,100.00
2022-12-03T20:10:52.214Z,100.00
2022-12-03T20:13:58.610Z,100.00
2022-12-03T20:17:03.943Z,100.00
2022-12-03T20:20:10.393Z,100.00
2022-12-03T20:23:15.748Z,100.00
2022-12-03T20:26:22.431Z,100.00
2022-12-03T20:29:27.620Z,100.00
2022-12-03T20:32:33.050Z,100.00
2022-12-03T20:35:38.654Z,100.00
2022-12-03T20:38:43.996Z,100.00
2022-12-03T20:41:49.229Z,100.00
2022-12-03T20:44:55.047Z,100.00
2022-12-03T20:48:00.348Z,100.00
2022-12-03T20:51:06.843Z,100.00
2022-12-03T20:54:12.316Z,100.00
2022-12-03T20:57:17.713Z,100.00
2022-12-03T21:00:23.286Z,100.00
2022-12-03T21:03:28.748Z,100.00
2022-12-03T21:06:35.999Z,100.00
2022-12-03T21:09:41.422Z,100.00
2022-12-03T21:12:46.925Z,100.00
2022-12-03T21:16:02.602Z,100.00
2022-12-03T21:19:08.159Z,100.00
2022-12-03T21:22:13.821Z,100.00
2022-12-03T21:25:19.219Z,100.00
2022-12-03T21:28:24.564Z,100.00
2022-12-03T21:31:31.824Z,100.00
2022-12-03T21:34:37.576Z,100.00
2022-12-03T21:37:43.083Z,100.00
2022-12-03T21:40:49.031Z,100.00
2022-12-03T21:43:54.510Z,100.00
2022-12-03T21:47:10.361Z,100.00
2022-12-03T21:50:20.208Z,100.00
2022-12-03T21:53:25.563Z,100.00
2022-12-03T21:56:31.972Z,100.00
2022-12-03T21:59:37.303Z,100.00
2022-12-03T22:02:42.959Z,100.00
2022-12-03T22:05:48.397Z,100.00
2022-12-03T22:08:53.809Z,100.00
2022-12-03T22:12:00.910Z,100.00
2022-12-03T22:15:06.983Z,100.00
2022-12-03T22:18:12.469Z,100.00
2022-12-03T22:21:19.151Z,100.00
2022-12-03T22:24:24.637Z,100.00
2022-12-03T22:27:29.937Z,100.00
2022-12-03T22:30:35.296Z,100.00
2022-12-03T22:33:40.743Z,100.00
2022-12-03T22:36:46.164Z,100.00
2022-12-03T22:39:51.575Z,100.00
2022-12-03T22:42:56.980Z,100.00
2022-12-03T22:46:02.460Z,100.00
2022-12-03T22:49:08.365Z,100.00
2022-12-03T22:52:13.804Z,100.00
2022-12-03T22:55:19.106Z,100.00
2022-12-03T22:58:24.540Z,100.00
2022-12-03T23:01:30.908Z,100.00
2022-12-03T23:04:36.297Z,100.00
2022-12-03T23:07:41.570Z,100.00
2022-12-03T23:10:49.383Z,100.00
2022-12-03T23:13:55.110Z,100.00
2022-12-03T23:17:00.351Z,100.00
2022-12-03T23:20:07.208Z,100.00
2022-12-03T23:23:12.768Z,100.00
2022-12-03T23:26:18.303Z,100.00
2022-12-03T23:29:23.603Z,100.00
2022-12-03T23:32:28.996Z,100.00
2022-12-03T23:35:34.574Z,100.00
2022-12-03T23:38:40.247Z,100.00
2022-12-03T23:41:45.548Z,100.00
2022-12-03T23:44:51.027Z,100.00
2022-12-03T23:47:58.344Z,100.00
2022-12-03T23:51:08.066Z,100.00
2022-12-03T23:54:13.401Z,100.00
2022-12-03T23:57:19.167Z,100.00
